sensor_id;sensor_type;location;lat;lon;timestamp;pressure;altitude;pressure_sealevel;temperature;humidity
67517;BME280;68821;59.134;37.894;2023-07-31T00:00:38;98998.38;;;17.89;70.05
67517;BME280;68821;59.134;37.894;2023-07-31T00:03:04;99007.94;;;17.89;70.41
67517;BME280;68821;59.134;37.894;2023-07-31T00:05:30;98998.31;;;17.91;70.56
67517;BME280;68821;59.134;37.894;2023-07-31T00:07:56;98996.59;;;17.90;70.50
67517;BME280;68821;59.134;37.894;2023-07-31T00:10:23;98993.97;;;17.92;70.53
67517;BME280;68821;59.134;37.894;2023-07-31T00:12:49;98993.97;;;17.92;70.33
67517;BME280;68821;59.134;37.894;2023-07-31T00:15:15;98994.66;;;17.97;70.61
67517;BME280;68821;59.134;37.894;2023-07-31T00:17:41;99004.16;;;17.98;70.47
67517;BME280;68821;59.134;37.894;2023-07-31T00:20:07;99004.16;;;17.98;70.66
67517;BME280;68821;59.134;37.894;2023-07-31T00:22:33;99009.34;;;17.98;70.40
67517;BME280;68821;59.134;37.894;2023-07-31T00:24:59;99016.34;;;17.96;70.76
67517;BME280;68821;59.134;37.894;2023-07-31T00:27:25;99010.34;;;17.94;70.66
67517;BME280;68821;59.134;37.894;2023-07-31T00:29:51;99012.16;;;17.92;70.85
67517;BME280;68821;59.134;37.894;2023-07-31T00:32:17;99017.41;;;17.90;70.91
67517;BME280;68821;59.134;37.894;2023-07-31T00:34:43;99017.41;;;17.90;71.19
67517;BME280;68821;59.134;37.894;2023-07-31T00:37:10;99020.00;;;17.90;70.94
67517;BME280;68821;59.134;37.894;2023-07-31T00:39:36;99028.81;;;17.86;71.26
67517;BME280;68821;59.134;37.894;2023-07-31T00:42:02;99024.66;;;17.80;71.77
67517;BME280;68821;59.134;37.894;2023-07-31T00:44:28;99018.00;;;17.72;71.66
67517;BME280;68821;59.134;37.894;2023-07-31T00:46:55;99033.53;;;17.75;71.98
67517;BME280;68821;59.134;37.894;2023-07-31T00:49:22;99038.09;;;17.68;71.80
67517;BME280;68821;59.134;37.894;2023-07-31T00:51:48;99039.88;;;17.66;72.05
67517;BME280;68821;59.134;37.894;2023-07-31T00:54:15;99037.38;;;17.63;72.25
67517;BME280;68821;59.134;37.894;2023-07-31T00:56:41;99037.38;;;17.63;72.05
67517;BME280;68821;59.134;37.894;2023-07-31T00:59:10;99046.09;;;17.62;72.36
67517;BME280;68821;59.134;37.894;2023-07-31T01:01:36;99048.78;;;17.59;72.42
67517;BME280;68821;59.134;37.894;2023-07-31T01:04:03;99047.19;;;17.55;72.78
67517;BME280;68821;59.134;37.894;2023-07-31T01:06:56;99043.78;;;17.53;73.02
67517;BME280;68821;59.134;37.894;2023-07-31T01:12:02;99052.56;;;17.48;73.01
67517;BME280;68821;59.134;37.894;2023-07-31T01:14:28;99046.50;;;17.49;72.69
67517;BME280;68821;59.134;37.894;2023-07-31T01:16:55;99049.09;;;17.49;73.00
67517;BME280;68821;59.134;37.894;2023-07-31T01:19:23;99053.50;;;17.47;72.94
67517;BME280;68821;59.134;37.894;2023-07-31T01:22:16;99059.53;;;17.48;72.98
67517;BME280;68821;59.134;37.894;2023-07-31T01:27:46;99045.75;;;17.46;73.14
67517;BME280;68821;59.134;37.894;2023-07-31T01:30:16;99038.16;;;17.40;73.27
67517;BME280;68821;59.134;37.894;2023-07-31T01:32:48;99045.91;;;17.41;73.08
67517;BME280;68821;59.134;37.894;2023-07-31T01:35:15;99048.50;;;17.41;73.13
67517;BME280;68821;59.134;37.894;2023-07-31T01:37:41;99049.34;;;17.42;73.27
67517;BME280;68821;59.134;37.894;2023-07-31T01:40:07;99059.63;;;17.45;73.14
67517;BME280;68821;59.134;37.894;2023-07-31T01:42:33;99052.69;;;17.45;73.18
67517;BME280;68821;59.134;37.894;2023-07-31T01:44:59;99042.16;;;17.50;73.17
67517;BME280;68821;59.134;37.894;2023-07-31T01:47:25;99047.97;;;17.57;73.03
67517;BME280;68821;59.134;37.894;2023-07-31T01:49:51;99041.81;;;17.59;73.02
67517;BME280;68821;59.134;37.894;2023-07-31T01:52:17;99038.22;;;17.63;72.87
67517;BME280;68821;59.134;37.894;2023-07-31T01:54:43;99042.38;;;17.69;72.63
67517;BME280;68821;59.134;37.894;2023-07-31T01:57:09;99041.38;;;17.73;72.43
67517;BME280;68821;59.134;37.894;2023-07-31T01:59:35;99045.56;;;17.77;72.46
67517;BME280;68821;59.134;37.894;2023-07-31T02:02:01;99043.66;;;17.82;72.11
67517;BME280;68821;59.134;37.894;2023-07-31T02:04:27;99034.03;;;17.86;72.38
67517;BME280;68821;59.134;37.894;2023-07-31T02:06:53;99034.13;;;17.83;71.84
67517;BME280;68821;59.134;37.894;2023-07-31T02:09:19;99045.91;;;17.93;71.90
67517;BME280;68821;59.134;37.894;2023-07-31T02:11:45;99039.81;;;17.94;71.91
67517;BME280;68821;59.134;37.894;2023-07-31T02:14:11;99040.50;;;17.99;71.66
67517;BME280;68821;59.134;37.894;2023-07-31T02:16:37;99040.34;;;18.04;71.30
67517;BME280;68821;59.134;37.894;2023-07-31T02:19:03;99040.13;;;18.10;71.28
67517;BME280;68821;59.134;37.894;2023-07-31T02:21:29;99042.47;;;18.18;71.29
67517;BME280;68821;59.134;37.894;2023-07-31T02:23:55;99039.69;;;18.22;71.20
67517;BME280;68821;59.134;37.894;2023-07-31T02:26:21;99056.00;;;18.27;71.23
67517;BME280;68821;59.134;37.894;2023-07-31T02:28:47;99042.97;;;18.27;71.25
67517;BME280;68821;59.134;37.894;2023-07-31T02:31:13;99039.50;;;18.27;71.36
67517;BME280;68821;59.134;37.894;2023-07-31T02:33:41;99048.28;;;18.24;71.24
67517;BME280;68821;59.134;37.894;2023-07-31T02:36:07;99045.63;;;18.26;71.35
67517;BME280;68821;59.134;37.894;2023-07-31T02:38:33;99049.13;;;18.25;71.42
67517;BME280;68821;59.134;37.894;2023-07-31T02:40:59;99041.50;;;18.20;71.29
67517;BME280;68821;59.134;37.894;2023-07-31T02:43:25;99042.41;;;18.19;71.66
67517;BME280;68821;59.134;37.894;2023-07-31T02:45:54;99038.09;;;18.18;71.71
67517;BME280;68821;59.134;37.894;2023-07-31T02:48:20;99038.00;;;18.21;71.93
67517;BME280;68821;59.134;37.894;2023-07-31T02:50:47;99025.88;;;18.20;71.56
67517;BME280;68821;59.134;37.894;2023-07-31T02:53:13;99020.59;;;18.23;71.79
67517;BME280;68821;59.134;37.894;2023-07-31T02:55:40;99024.88;;;18.24;71.93
67517;BME280;68821;59.134;37.894;2023-07-31T02:58:06;99024.06;;;18.22;71.83
67517;BME280;68821;59.134;37.894;2023-07-31T03:00:32;99030.28;;;18.18;71.87
67517;BME280;68821;59.134;37.894;2023-07-31T03:02:58;99037.25;;;18.18;72.02
67517;BME280;68821;59.134;37.894;2023-07-31T03:05:24;99046.81;;;18.17;71.77
67517;BME280;68821;59.134;37.894;2023-07-31T03:07:50;99036.47;;;18.16;71.75
67517;BME280;68821;59.134;37.894;2023-07-31T03:10:16;99035.72;;;18.12;71.72
67517;BME280;68821;59.134;37.894;2023-07-31T03:12:42;99037.34;;;18.15;71.83
67517;BME280;68821;59.134;37.894;2023-07-31T03:15:08;99014.13;;;18.10;72.03
67517;BME280;68821;59.134;37.894;2023-07-31T03:17:34;99032.28;;;18.12;72.15
67517;BME280;68821;59.134;37.894;2023-07-31T03:20:00;99020.09;;;18.12;71.83
67517;BME280;68821;59.134;37.894;2023-07-31T03:22:26;99031.22;;;18.17;71.95
67517;BME280;68821;59.134;37.894;2023-07-31T03:24:53;99027.69;;;18.18;72.04
67517;BME280;68821;59.134;37.894;2023-07-31T03:27:19;99026.81;;;18.19;71.75
67517;BME280;68821;59.134;37.894;2023-07-31T03:29:45;99024.19;;;18.19;71.78
67517;BME280;68821;59.134;37.894;2023-07-31T03:32:11;99020.63;;;18.22;71.88
67517;BME280;68821;59.134;37.894;2023-07-31T03:34:37;99025.84;;;18.22;71.64
67517;BME280;68821;59.134;37.894;2023-07-31T03:37:03;99023.22;;;18.22;71.89
67517;BME280;68821;59.134;37.894;2023-07-31T03:39:30;99020.59;;;18.23;71.63
67517;BME280;68821;59.134;37.894;2023-07-31T03:41:56;99024.88;;;18.24;71.86
67517;BME280;68821;59.134;37.894;2023-07-31T03:44:22;99024.81;;;18.26;71.88
67517;BME280;68821;59.134;37.894;2023-07-31T03:46:48;99023.00;;;18.28;71.66
67517;BME280;68821;59.134;37.894;2023-07-31T03:49:14;99016.97;;;18.27;71.65
67517;BME280;68821;59.134;37.894;2023-07-31T03:51:40;99019.66;;;18.24;71.77
67517;BME280;68821;59.134;37.894;2023-07-31T03:54:07;99030.03;;;18.26;71.46
67517;BME280;68821;59.134;37.894;2023-07-31T03:56:33;99032.66;;;18.24;71.62
67517;BME280;68821;59.134;37.894;2023-07-31T03:59:00;99036.19;;;18.23;71.43
67517;BME280;68821;59.134;37.894;2023-07-31T04:01:26;99026.69;;;18.22;71.49
67517;BME280;68821;59.134;37.894;2023-07-31T04:03:52;99032.72;;;18.23;71.55
67517;BME280;68821;59.134;37.894;2023-07-31T04:06:18;99020.59;;;18.23;71.20
67517;BME280;68821;59.134;37.894;2023-07-31T04:08:44;99032.63;;;18.26;71.13
67517;BME280;68821;59.134;37.894;2023-07-31T04:11:11;99027.47;;;18.24;71.20
67517;BME280;68821;59.134;37.894;2023-07-31T04:13:38;99023.00;;;18.28;71.06
67517;BME280;68821;59.134;37.894;2023-07-31T04:16:04;99026.34;;;18.32;71.17
67517;BME280;68821;59.134;37.894;2023-07-31T04:18:31;99027.75;;;18.40;71.16
67517;BME280;68821;59.134;37.894;2023-07-31T04:20:58;99033.63;;;18.45;70.75
67517;BME280;68821;59.134;37.894;2023-07-31T04:23:25;99027.31;;;18.53;70.64
67517;BME280;68821;59.134;37.894;2023-07-31T04:25:51;99047.66;;;18.65;70.04
67517;BME280;68821;59.134;37.894;2023-07-31T04:28:17;99039.56;;;18.73;70.14
67517;BME280;68821;59.134;37.894;2023-07-31T04:30:43;99043.66;;;18.80;69.93
67517;BME280;68821;59.134;37.894;2023-07-31T04:33:10;99045.25;;;18.84;69.75
67517;BME280;68821;59.134;37.894;2023-07-31T04:35:36;99046.81;;;18.88;69.30
67517;BME280;68821;59.134;37.894;2023-07-31T04:38:02;99050.16;;;18.92;69.57
67517;BME280;68821;59.134;37.894;2023-07-31T04:40:30;99043.00;;;18.97;69.50
67517;BME280;68821;59.134;37.894;2023-07-31T04:42:56;99043.69;;;19.02;69.46
67517;BME280;68821;59.134;37.894;2023-07-31T04:45:22;99051.22;;;19.09;69.64
67517;BME280;68821;59.134;37.894;2023-07-31T04:47:48;99049.16;;;19.18;69.25
67517;BME280;68821;59.134;37.894;2023-07-31T04:50:14;99041.31;;;19.18;69.09
67517;BME280;68821;59.134;37.894;2023-07-31T04:52:40;99048.13;;;19.22;69.02
67517;BME280;68821;59.134;37.894;2023-07-31T04:55:06;99053.88;;;19.30;69.09
67517;BME280;68821;59.134;37.894;2023-07-31T04:57:33;99047.47;;;19.37;68.93
67517;BME280;68821;59.134;37.894;2023-07-31T05:00:01;99049.84;;;19.43;68.60
67517;BME280;68821;59.134;37.894;2023-07-31T05:02:27;99047.97;;;19.47;68.49
67517;BME280;68821;59.134;37.894;2023-07-31T05:04:53;99041.72;;;19.51;68.48
67517;BME280;68821;59.134;37.894;2023-07-31T05:07:19;99044.84;;;19.59;68.35
67517;BME280;68821;59.134;37.894;2023-07-31T05:09:45;99039.75;;;19.56;68.19
67517;BME280;68821;59.134;37.894;2023-07-31T05:12:11;99044.06;;;19.57;68.09
67517;BME280;68821;59.134;37.894;2023-07-31T05:14:37;99044.06;;;19.57;68.12
67517;BME280;68821;59.134;37.894;2023-07-31T05:17:03;99043.88;;;19.62;68.19
67517;BME280;68821;59.134;37.894;2023-07-31T05:19:30;99040.03;;;19.70;68.14
67517;BME280;68821;59.134;37.894;2023-07-31T05:21:56;99044.88;;;19.80;68.41
67517;BME280;68821;59.134;37.894;2023-07-31T05:24:22;99044.69;;;19.84;67.95
67517;BME280;68821;59.134;37.894;2023-07-31T05:26:48;99038.75;;;19.81;67.84
67517;BME280;68821;59.134;37.894;2023-07-31T05:29:14;99043.91;;;19.82;68.05
67517;BME280;68821;59.134;37.894;2023-07-31T05:31:40;99045.41;;;19.88;67.55
67517;BME280;68821;59.134;37.894;2023-07-31T05:34:06;99054.47;;;20.00;67.48
67517;BME280;68821;59.134;37.894;2023-07-31T05:36:32;99056.81;;;20.06;66.89
67517;BME280;68821;59.134;37.894;2023-07-31T05:38:58;99054.91;;;20.09;66.50
67517;BME280;68821;59.134;37.894;2023-07-31T05:41:24;99060.84;;;20.13;66.51
67517;BME280;68821;59.134;37.894;2023-07-31T05:43:50;99053.00;;;20.13;66.47
67517;BME280;68821;59.134;37.894;2023-07-31T05:46:17;99063.34;;;20.16;66.32
67517;BME280;68821;59.134;37.894;2023-07-31T05:48:43;99066.63;;;20.20;66.53
67517;BME280;68821;59.134;37.894;2023-07-31T05:51:09;99060.47;;;20.22;66.40
67517;BME280;68821;59.134;37.894;2023-07-31T05:53:35;99064.47;;;20.29;65.94
67517;BME280;68821;59.134;37.894;2023-07-31T05:56:04;99061.75;;;20.33;65.87
67517;BME280;68821;59.134;37.894;2023-07-31T05:58:29;99055.53;;;20.35;66.00
67517;BME280;68821;59.134;37.894;2023-07-31T06:00:56;99054.59;;;20.36;65.41
67517;BME280;68821;59.134;37.894;2023-07-31T06:03:22;99054.03;;;20.29;65.37
67517;BME280;68821;59.134;37.894;2023-07-31T06:05:48;99060.31;;;20.25;65.39
67517;BME280;68821;59.134;37.894;2023-07-31T06:08:14;99054.53;;;20.19;65.43
67517;BME280;68821;59.134;37.894;2023-07-31T06:10:40;99056.28;;;20.18;65.38
67517;BME280;68821;59.134;37.894;2023-07-31T06:13:06;99066.63;;;20.20;65.77
67517;BME280;68821;59.134;37.894;2023-07-31T06:15:32;99062.97;;;20.24;65.54
67517;BME280;68821;59.134;37.894;2023-07-31T06:17:58;99066.47;;;20.24;65.56
67517;BME280;68821;59.134;37.894;2023-07-31T06:20:28;99064.63;;;20.26;65.41
67517;BME280;68821;59.134;37.894;2023-07-31T06:22:54;99056.59;;;20.31;65.64
67517;BME280;68821;59.134;37.894;2023-07-31T06:25:20;99047.75;;;20.34;65.17
67517;BME280;68821;59.134;37.894;2023-07-31T06:27:46;99050.38;;;20.34;65.39
67517;BME280;68821;59.134;37.894;2023-07-31T06:30:12;99063.72;;;20.46;64.81
67517;BME280;68821;59.134;37.894;2023-07-31T06:32:38;99064.59;;;20.47;64.72
67517;BME280;68821;59.134;37.894;2023-07-31T06:35:06;99057.44;;;20.50;64.89
67517;BME280;68821;59.134;37.894;2023-07-31T06:37:32;99054.84;;;20.50;64.49
67517;BME280;68821;59.134;37.894;2023-07-31T06:39:58;99059.00;;;20.55;64.42
67517;BME280;68821;59.134;37.894;2023-07-31T06:42:24;99069.00;;;20.65;64.87
67517;BME280;68821;59.134;37.894;2023-07-31T06:44:51;99068.44;;;20.78;64.51
67517;BME280;68821;59.134;37.894;2023-07-31T06:47:17;99067.00;;;20.89;64.60
67517;BME280;68821;59.134;37.894;2023-07-31T06:49:43;99074.22;;;21.03;64.28
67517;BME280;68821;59.134;37.894;2023-07-31T06:52:09;99062.56;;;21.10;63.90
67517;BME280;68821;59.134;37.894;2023-07-31T06:54:36;99064.00;;;21.16;63.71
67517;BME280;68821;59.134;37.894;2023-07-31T06:57:03;99071.50;;;21.24;63.20
67517;BME280;68821;59.134;37.894;2023-07-31T06:59:29;99064.19;;;21.30;63.22
67517;BME280;68821;59.134;37.894;2023-07-31T07:01:55;99071.59;;;21.40;63.03
67517;BME280;68821;59.134;37.894;2023-07-31T07:04:21;99071.19;;;21.49;62.90
67517;BME280;68821;59.134;37.894;2023-07-31T07:06:47;99075.19;;;21.56;63.27
67517;BME280;68821;59.134;37.894;2023-07-31T07:09:13;99074.13;;;21.60;62.78
67517;BME280;68821;59.134;37.894;2023-07-31T07:11:39;99073.97;;;21.63;62.73
67517;BME280;68821;59.134;37.894;2023-07-31T07:14:05;99077.56;;;21.61;62.22
67517;BME280;68821;59.134;37.894;2023-07-31T07:16:31;99073.28;;;21.60;62.52
67517;BME280;68821;59.134;37.894;2023-07-31T07:18:57;99082.75;;;21.62;62.16
67517;BME280;68821;59.134;37.894;2023-07-31T07:21:23;99082.66;;;21.64;62.12
67517;BME280;68821;59.134;37.894;2023-07-31T07:23:49;99085.06;;;21.68;62.06
67517;BME280;68821;59.134;37.894;2023-07-31T07:26:16;99086.13;;;21.64;61.84
67517;BME280;68821;59.134;37.894;2023-07-31T07:28:42;99085.34;;;21.62;61.33
67517;BME280;68821;59.134;37.894;2023-07-31T07:31:08;99078.88;;;21.69;62.04
67517;BME280;68821;59.134;37.894;2023-07-31T07:33:34;99082.72;;;21.80;61.18
67517;BME280;68821;59.134;37.894;2023-07-31T07:36:01;99091.53;;;21.79;61.35
67517;BME280;68821;59.134;37.894;2023-07-31T07:38:27;99080.28;;;21.77;60.52
67517;BME280;68821;59.134;37.894;2023-07-31T07:40:54;99083.75;;;21.77;60.95
67517;BME280;68821;59.134;37.894;2023-07-31T07:43:20;99087.00;;;21.82;61.68
67517;BME280;68821;59.134;37.894;2023-07-31T07:45:46;99083.97;;;21.90;61.44
67517;BME280;68821;59.134;37.894;2023-07-31T07:48:12;99088.69;;;22.01;60.92
67517;BME280;68821;59.134;37.894;2023-07-31T07:50:38;99092.66;;;22.08;61.08
67517;BME280;68821;59.134;37.894;2023-07-31T07:53:05;99102.03;;;22.12;60.88
67517;BME280;68821;59.134;37.894;2023-07-31T07:55:31;99095.66;;;22.18;60.66
67517;BME280;68821;59.134;37.894;2023-07-31T07:57:57;99105.13;;;22.20;60.55
67517;BME280;68821;59.134;37.894;2023-07-31T08:00:23;99095.66;;;22.18;60.23
67517;BME280;68821;59.134;37.894;2023-07-31T08:02:49;99088.72;;;22.17;60.25
67517;BME280;68821;59.134;37.894;2023-07-31T08:05:16;99094.81;;;22.17;60.20
67517;BME280;68821;59.134;37.894;2023-07-31T08:07:43;99098.28;;;22.18;59.89
67517;BME280;68821;59.134;37.894;2023-07-31T08:10:09;99095.66;;;22.18;60.06
67517;BME280;68821;59.134;37.894;2023-07-31T08:12:35;99104.22;;;22.21;60.24
67517;BME280;68821;59.134;37.894;2023-07-31T08:15:01;99090.25;;;22.21;60.31
67517;BME280;68821;59.134;37.894;2023-07-31T08:17:27;99096.06;;;22.27;59.89
67517;BME280;68821;59.134;37.894;2023-07-31T08:19:53;99104.63;;;22.47;59.43
67517;BME280;68821;59.134;37.894;2023-07-31T08:22:19;99098.94;;;22.56;59.64
67517;BME280;68821;59.134;37.894;2023-07-31T08:24:45;99104.34;;;22.69;59.31
67517;BME280;68821;59.134;37.894;2023-07-31T08:27:11;99106.56;;;22.77;58.94
67517;BME280;68821;59.134;37.894;2023-07-31T08:29:37;99105.53;;;22.79;58.79
67517;BME280;68821;59.134;37.894;2023-07-31T08:32:04;99110.59;;;22.82;58.71
67517;BME280;68821;59.134;37.894;2023-07-31T08:34:30;99120.25;;;22.82;58.33
67517;BME280;68821;59.134;37.894;2023-07-31T08:36:56;99114.50;;;22.75;58.35
67517;BME280;68821;59.134;37.894;2023-07-31T08:39:22;99109.59;;;22.69;58.79
67517;BME280;68821;59.134;37.894;2023-07-31T08:41:48;99119.31;;;22.67;58.82
67517;BME280;68821;59.134;37.894;2023-07-31T08:44:15;99106.22;;;22.67;58.54
67517;BME280;68821;59.134;37.894;2023-07-31T08:46:42;99110.59;;;22.66;58.22
67517;BME280;68821;59.134;37.894;2023-07-31T08:49:09;99116.75;;;22.65;58.35
67517;BME280;68821;59.134;37.894;2023-07-31T08:51:36;99111.44;;;22.67;58.55
67517;BME280;68821;59.134;37.894;2023-07-31T08:54:02;99109.00;;;22.80;58.56
67517;BME280;68821;59.134;37.894;2023-07-31T08:56:32;99113.19;;;23.00;58.06
67517;BME280;68821;59.134;37.894;2023-07-31T08:59:01;99113.97;;;23.18;58.03
67517;BME280;68821;59.134;37.894;2023-07-31T09:01:30;99104.31;;;23.34;57.35
67517;BME280;68821;59.134;37.894;2023-07-31T09:03:59;99094.94;;;23.30;56.81
67517;BME280;68821;59.134;37.894;2023-07-31T09:06:28;99111.78;;;23.26;57.25
67517;BME280;68821;59.134;37.894;2023-07-31T09:08:56;99108.47;;;23.38;56.89
67517;BME280;68821;59.134;37.894;2023-07-31T09:11:23;99101.50;;;23.37;57.24
67517;BME280;68821;59.134;37.894;2023-07-31T09:13:50;99105.91;;;23.37;56.95
67517;BME280;68821;59.134;37.894;2023-07-31T09:16:16;99112.44;;;23.29;56.47
67517;BME280;68821;59.134;37.894;2023-07-31T09:18:55;99108.28;;;23.25;56.47
67517;BME280;68821;59.134;37.894;2023-07-31T09:21:23;99105.09;;;23.36;56.58
67517;BME280;68821;59.134;37.894;2023-07-31T09:23:50;99108.59;;;23.51;56.20
67517;BME280;68821;59.134;37.894;2023-07-31T09:26:36;99112.16;;;23.50;55.60
67517;BME280;68821;59.134;37.894;2023-07-31T09:29:07;99109.53;;;23.50;55.88
67517;BME280;68821;59.134;37.894;2023-07-31T09:31:44;99109.63;;;23.48;55.68
67517;BME280;68821;59.134;37.894;2023-07-31T09:34:10;99103.50;;;23.48;56.10
67517;BME280;68821;59.134;37.894;2023-07-31T09:36:44;99103.41;;;23.65;55.33
67517;BME280;68821;59.134;37.894;2023-07-31T09:39:12;99108.38;;;23.70;55.35
67517;BME280;68821;59.134;37.894;2023-07-31T09:41:44;99114.75;;;23.66;55.24
67517;BME280;68821;59.134;37.894;2023-07-31T09:44:11;99115.19;;;23.58;55.19
67517;BME280;68821;59.134;37.894;2023-07-31T09:46:37;99109.78;;;23.45;54.91
67517;BME280;68821;59.134;37.894;2023-07-31T09:49:11;99115.03;;;23.29;54.11
67517;BME280;68821;59.134;37.894;2023-07-31T09:51:39;99120.81;;;23.20;55.08
67517;BME280;68821;59.134;37.894;2023-07-31T09:54:10;99125.47;;;23.15;54.90
67517;BME280;68821;59.134;37.894;2023-07-31T09:56:45;99119.56;;;23.12;55.09
67517;BME280;68821;59.134;37.894;2023-07-31T09:59:14;99117.78;;;23.12;55.29
67517;BME280;68821;59.134;37.894;2023-07-31T10:01:41;99121.22;;;23.13;55.19
67517;BME280;68821;59.134;37.894;2023-07-31T10:04:09;99123.09;;;23.10;55.21
67517;BME280;68821;59.134;37.894;2023-07-31T10:06:37;99119.72;;;23.08;55.19
67517;BME280;68821;59.134;37.894;2023-07-31T10:09:06;99116.25;;;23.08;55.18
67517;BME280;68821;59.134;37.894;2023-07-31T10:11:46;99121.50;;;23.08;55.46
67517;BME280;68821;59.134;37.894;2023-07-31T10:14:20;99121.31;;;23.11;55.92
67517;BME280;68821;59.134;37.894;2023-07-31T10:16:47;99127.44;;;23.12;55.44
67517;BME280;68821;59.134;37.894;2023-07-31T10:19:14;99126.88;;;23.05;55.60
67517;BME280;68821;59.134;37.894;2023-07-31T10:21:42;99127.06;;;23.02;55.05
67517;BME280;68821;59.134;37.894;2023-07-31T10:24:08;99125.13;;;23.05;55.52
67517;BME280;68821;59.134;37.894;2023-07-31T10:26:35;99133.50;;;23.12;56.05
67517;BME280;68821;59.134;37.894;2023-07-31T10:29:05;99135.38;;;23.26;56.01
67517;BME280;68821;59.134;37.894;2023-07-31T10:31:32;99129.25;;;23.41;56.08
67517;BME280;68821;59.134;37.894;2023-07-31T10:34:00;99135.69;;;23.52;56.54
67517;BME280;68821;59.134;37.894;2023-07-31T10:36:26;99130.91;;;23.58;56.36
67517;BME280;68821;59.134;37.894;2023-07-31T10:38:52;99125.44;;;23.63;55.84
67517;BME280;68821;59.134;37.894;2023-07-31T10:41:29;99140.91;;;23.67;56.32
67517;BME280;68821;59.134;37.894;2023-07-31T10:43:58;99141.31;;;23.92;56.12
67517;BME280;68821;59.134;37.894;2023-07-31T10:46:25;99138.63;;;24.07;55.59
67517;BME280;68821;59.134;37.894;2023-07-31T10:48:58;99142.66;;;24.13;55.63
67517;BME280;68821;59.134;37.894;2023-07-31T10:51:33;99138.38;;;24.12;55.10
67517;BME280;68821;59.134;37.894;2023-07-31T10:54:13;99133.38;;;24.07;53.93
67517;BME280;68821;59.134;37.894;2023-07-31T10:56:45;99143.31;;;24.02;54.23
67517;BME280;68821;59.134;37.894;2023-07-31T10:59:12;99131.78;;;24.05;54.86
67517;BME280;68821;59.134;37.894;2023-07-31T11:01:57;99137.97;;;24.04;54.21
67517;BME280;68821;59.134;37.894;2023-07-31T11:04:27;99130.84;;;24.06;54.08
67517;BME280;68821;59.134;37.894;2023-07-31T11:07:00;99141.25;;;24.07;54.10
67517;BME280;68821;59.134;37.894;2023-07-31T11:09:30;99137.72;;;24.23;54.38
67517;BME280;68821;59.134;37.894;2023-07-31T11:11:58;99130.66;;;24.54;54.06
67517;BME280;68821;59.134;37.894;2023-07-31T11:14:25;99134.88;;;24.56;53.96
67517;BME280;68821;59.134;37.894;2023-07-31T11:16:51;99136.66;;;24.56;53.21
67517;BME280;68821;59.134;37.894;2023-07-31T11:19:24;99144.72;;;24.53;53.03
67517;BME280;68821;59.134;37.894;2023-07-31T11:21:52;99146.69;;;24.49;53.28
67517;BME280;68821;59.134;37.894;2023-07-31T11:24:19;99145.53;;;24.39;53.32
67517;BME280;68821;59.134;37.894;2023-07-31T11:26:52;99141.78;;;24.28;53.70
67517;BME280;68821;59.134;37.894;2023-07-31T11:29:19;99144.09;;;24.19;53.62
67517;BME280;68821;59.134;37.894;2023-07-31T11:31:46;99143.78;;;24.09;53.68
67517;BME280;68821;59.134;37.894;2023-07-31T11:34:13;99143.59;;;23.98;54.01
67517;BME280;68821;59.134;37.894;2023-07-31T11:36:39;99142.06;;;23.94;54.30
67517;BME280;68821;59.134;37.894;2023-07-31T11:39:07;99142.22;;;23.90;54.60
67517;BME280;68821;59.134;37.894;2023-07-31T11:41:34;99142.59;;;23.84;54.41
67517;BME280;68821;59.134;37.894;2023-07-31T11:44:01;99137.84;;;23.75;54.58
67517;BME280;68821;59.134;37.894;2023-07-31T11:46:30;99135.16;;;23.77;54.39
67517;BME280;68821;59.134;37.894;2023-07-31T11:49:00;99133.53;;;23.74;54.06
67517;BME280;68821;59.134;37.894;2023-07-31T11:51:27;99144.19;;;23.87;54.21
67517;BME280;68821;59.134;37.894;2023-07-31T11:53:57;99144.97;;;24.03;54.70
67517;BME280;68821;59.134;37.894;2023-07-31T11:56:25;99138.25;;;24.14;54.14
67517;BME280;68821;59.134;37.894;2023-07-31T11:59:02;99150.84;;;24.23;53.68
67517;BME280;68821;59.134;37.894;2023-07-31T12:01:29;99147.97;;;24.42;53.88
67517;BME280;68821;59.134;37.894;2023-07-31T12:03:57;99148.38;;;24.64;53.09
67517;BME280;68821;59.134;37.894;2023-07-31T12:06:32;99153.84;;;24.90;52.59
67517;BME280;68821;59.134;37.894;2023-07-31T12:09:04;99147.97;;;25.14;52.40
67517;BME280;68821;59.134;37.894;2023-07-31T12:11:31;99156.66;;;25.43;52.41
67517;BME280;68821;59.134;37.894;2023-07-31T12:13:57;99146.91;;;25.72;52.77
67517;BME280;68821;59.134;37.894;2023-07-31T12:16:26;99141.94;;;26.07;51.69
67517;BME280;68821;59.134;37.894;2023-07-31T12:18:53;99130.69;;;26.44;50.83
67517;BME280;68821;59.134;37.894;2023-07-31T12:21:20;99135.50;;;27.01;50.07
67517;BME280;68821;59.134;37.894;2023-07-31T12:23:46;99138.38;;;27.35;48.96
67517;BME280;68821;59.134;37.894;2023-07-31T12:26:14;99131.09;;;27.63;48.40
67517;BME280;68821;59.134;37.894;2023-07-31T12:28:44;99142.94;;;27.81;48.04
67517;BME280;68821;59.134;37.894;2023-07-31T12:31:15;99134.88;;;27.83;47.72
67517;BME280;68821;59.134;37.894;2023-07-31T12:33:43;99150.97;;;27.80;47.76
67517;BME280;68821;59.134;37.894;2023-07-31T12:36:14;99135.78;;;27.70;47.54
67517;BME280;68821;59.134;37.894;2023-07-31T12:38:41;99142.47;;;27.63;47.55
67517;BME280;68821;59.134;37.894;2023-07-31T12:41:08;99137.47;;;27.72;47.84
67517;BME280;68821;59.134;37.894;2023-07-31T12:43:35;99136.50;;;27.97;47.17
67517;BME280;68821;59.134;37.894;2023-07-31T12:46:02;99135.63;;;28.20;47.53
67517;BME280;68821;59.134;37.894;2023-07-31T12:48:28;99142.72;;;28.42;47.87
67517;BME280;68821;59.134;37.894;2023-07-31T12:50:54;99132.31;;;28.52;47.38
67517;BME280;68821;59.134;37.894;2023-07-31T12:53:20;99133.53;;;28.59;47.13
67517;BME280;68821;59.134;37.894;2023-07-31T12:55:46;99144.38;;;28.67;47.11